Time;durP1;ratioP1;P1;durP2;ratioP2;P2;SDS_P1;SDS_P2;PMS_P1;PMS_P2;Temp;Humidity;BMP_temperature;BMP_pressure;BME280_temperature;BME280_humidity;BME280_pressure;Samples;Min_cycle;Max_cycle;Signal;HPM_P1;HPM_P2
2021/07/28 13:05:56;;;;;;;2.42;1.33;;;24.20;65.40;;;;;;5064927;28;20822;-82
2021/07/28 13:08:22;;;;;;;4.85;1.73;;;24.20;65.10;;;;;;5020305;28;20486;-84
2021/07/28 13:10:48;;;;;;;4.28;1.90;;;24.20;64.80;;;;;;4965802;28;20047;-85
2021/07/28 13:13:17;;;;;;;4.05;1.58;;;24.20;66.40;;;;;;4934158;28;20078;-85
2021/07/28 13:15:44;;;;;;;5.10;1.52;;;24.10;66.50;;;;;;4950387;28;20041;-88
2021/07/28 13:18:09;;;;;;;3.50;1.88;;;24.10;67.40;;;;;;4948397;28;20027;-86
2021/07/28 13:20:35;;;;;;;3.92;1.75;;;24.00;67.50;;;;;;4982974;28;20035;-84
2021/07/28 13:23:02;;;;;;;6.53;1.80;;;24.00;68.30;;;;;;4983418;28;20031;-84
2021/07/28 13:25:28;;;;;;;6.43;1.70;;;24.00;68.70;;;;;;4985827;28;20108;-84
2021/07/28 13:27:54;;;;;;;3.70;2.13;;;24.00;68.30;;;;;;4983859;28;20273;-85
2021/07/28 13:30:20;;;;;;;3.80;1.70;;;24.00;68.40;;;;;;4982969;28;20049;-84
2021/07/28 13:32:45;;;;;;;2.22;1.88;;;24.00;68.50;;;;;;4982111;28;20036;-85
2021/07/28 13:35:11;;;;;;;2.63;2.03;;;23.90;68.70;;;;;;4983162;28;20118;-84
2021/07/28 13:37:38;;;;;;;3.58;2.10;;;23.90;68.90;;;;;;5001216;28;20061;-84
2021/07/28 13:40:08;;;;;;;2.25;2.05;;;23.90;69.10;;;;;;4993971;28;20112;-84
2021/07/28 13:42:36;;;;;;;3.03;1.83;;;23.90;69.30;;;;;;4951379;28;20435;-84
2021/07/28 13:45:02;;;;;;;2.45;1.95;;;24.00;69.50;;;;;;4950290;28;20093;-85
2021/07/28 13:47:28;;;;;;;2.42;2.22;;;24.00;69.50;;;;;;4950112;28;20031;-85
2021/07/28 13:49:57;;;;;;;3.90;2.17;;;24.00;69.50;;;;;;4951701;28;20027;-85
2021/07/28 13:52:22;;;;;;;4.22;2.15;;;24.00;69.60;;;;;;4983848;28;20036;-85
2021/07/28 13:54:48;;;;;;;2.53;2.10;;;24.10;69.70;;;;;;4952052;28;20394;-84
2021/07/28 13:57:15;;;;;;;3.40;2.10;;;24.10;69.80;;;;;;4951130;28;20035;-85
2021/07/28 13:59:41;;;;;;;3.50;2.40;;;24.10;69.80;;;;;;4951852;28;20038;-83
2021/07/28 14:02:07;;;;;;;2.80;1.92;;;24.10;69.90;;;;;;4939475;28;20454;-84
2021/07/28 14:04:33;;;;;;;3.20;2.40;;;24.20;70.00;;;;;;4951339;28;20038;-84
2021/07/28 14:06:58;;;;;;;3.17;2.53;;;24.20;70.10;;;;;;4951099;28;20033;-85
2021/07/28 14:09:24;;;;;;;2.58;2.38;;;24.20;70.10;;;;;;4982650;28;20027;-84
2021/07/28 14:11:50;;;;;;;2.63;2.03;;;24.20;70.20;;;;;;4983949;28;20031;-84
2021/07/28 14:14:15;;;;;;;5.25;2.20;;;24.20;70.10;;;;;;4983232;28;20037;-84
2021/07/28 14:16:41;;;;;;;3.08;2.00;;;24.30;70.30;;;;;;4970238;28;20035;-85
2021/07/28 14:19:06;;;;;;;2.40;2.08;;;24.20;70.40;;;;;;4934975;29;20031;-85
2021/07/28 14:21:32;;;;;;;2.00;1.90;;;24.20;70.60;;;;;;4935248;29;20062;-85
2021/07/28 14:23:58;;;;;;;2.30;2.10;;;24.20;70.60;;;;;;4935452;29;20035;-84
2021/07/28 14:26:23;;;;;;;4.40;2.53;;;24.30;70.80;;;;;;4934659;29;20059;-84
2021/07/28 14:28:49;;;;;;;3.40;2.45;;;24.30;71.40;;;;;;4934687;29;20082;-84
2021/07/28 14:31:14;;;;;;;2.80;2.30;;;24.20;71.00;;;;;;4934855;29;20452;-85
2021/07/28 14:33:40;;;;;;;2.40;2.20;;;24.20;71.10;;;;;;4941217;28;20472;-85
2021/07/28 14:36:06;;;;;;;2.50;1.90;;;24.20;71.20;;;;;;4989419;28;20026;-84
2021/07/28 14:38:31;;;;;;;2.28;2.05;;;24.20;71.40;;;;;;4972310;28;20484;-84
2021/07/28 14:40:57;;;;;;;3.33;2.25;;;24.20;71.50;;;;;;4950597;28;20377;-85
2021/07/28 14:43:22;;;;;;;4.43;2.05;;;24.20;71.60;;;;;;4950290;28;20476;-84
2021/07/28 14:45:48;;;;;;;2.70;2.42;;;24.20;71.60;;;;;;4950371;28;20035;-84
2021/07/28 14:48:13;;;;;;;3.00;2.08;;;24.10;71.60;;;;;;4950310;28;20109;-85
2021/07/28 14:50:42;;;;;;;4.63;2.05;;;24.10;71.50;;;;;;4950484;28;20130;-85
2021/07/28 14:53:08;;;;;;;3.45;2.30;;;24.10;71.80;;;;;;4950385;28;20031;-86
2021/07/28 14:55:33;;;;;;;4.35;2.10;;;24.10;71.90;;;;;;4950454;28;20075;-85
2021/07/28 14:58:00;;;;;;;2.47;2.25;;;24.10;72.10;;;;;;4949898;28;20531;-85
2021/07/28 15:00:27;;;;;;;4.32;2.10;;;24.10;72.20;;;;;;4950280;28;20042;-86
2021/07/28 15:02:53;;;;;;;3.55;2.03;;;24.10;72.30;;;;;;4976837;28;20034;-85
2021/07/28 15:05:19;;;;;;;2.33;1.98;;;24.10;72.30;;;;;;4980673;28;20041;-86
2021/07/28 15:07:44;;;;;;;3.25;2.22;;;24.10;72.30;;;;;;4985448;28;20093;-86
2021/07/28 15:10:10;;;;;;;2.70;2.22;;;24.10;72.30;;;;;;4988893;28;20439;-86
2021/07/28 15:12:35;;;;;;;6.43;2.33;;;24.10;71.20;;;;;;4988894;28;20510;-85
2021/07/28 15:15:04;;;;;;;8.40;2.78;;;24.10;72.00;;;;;;4989820;28;20085;-86
2021/07/28 15:17:30;;;;;;;5.85;2.10;;;24.20;74.70;;;;;;4989456;28;20084;-85
2021/07/28 15:19:55;;;;;;;2.47;2.00;;;24.20;74.70;;;;;;4989204;28;20696;-86
2021/07/28 15:22:21;;;;;;;4.47;2.00;;;24.20;76.90;;;;;;4989008;28;20030;-88
2021/07/28 15:24:47;;;;;;;3.38;1.70;;;24.10;76.50;;;;;;4981098;28;20061;-88
2021/07/28 15:27:12;;;;;;;3.28;2.47;;;24.10;76.70;;;;;;4942527;28;20027;-87
2021/07/28 15:29:38;;;;;;;4.45;2.17;;;24.10;76.10;;;;;;4938966;28;20025;-89
2021/07/28 15:32:05;;;;;;;2.63;2.00;;;24.10;76.50;;;;;;4936429;28;20031;-88
2021/07/28 15:34:31;;;;;;;6.43;2.30;;;24.10;75.60;;;;;;4952721;28;20035;-88
2021/07/28 15:36:57;;;;;;;5.25;2.20;;;24.10;75.50;;;;;;4956747;28;20065;-86
2021/07/28 15:39:25;;;;;;;4.95;2.53;;;24.10;75.10;;;;;;4936920;28;20031;-87
2021/07/28 15:41:51;;;;;;;7.28;2.63;;;24.20;81.70;;;;;;4968896;28;20062;-87
2021/07/28 15:44:17;;;;;;;2.60;2.40;;;24.30;84.40;;;;;;4936825;28;20065;-86
2021/07/28 15:46:43;;;;;;;6.13;2.50;;;24.30;78.20;;;;;;4937315;28;20189;-87
2021/07/28 15:49:08;;;;;;;4.00;1.95;;;24.30;78.00;;;;;;4936720;28;20452;-86
2021/07/28 15:51:35;;;;;;;8.00;3.08;;;24.30;78.10;;;;;;4936745;28;20503;-87
2021/07/28 15:54:01;;;;;;;5.05;2.47;;;24.40;90.50;;;;;;4936811;28;20030;-86
2021/07/28 15:56:27;;;;;;;7.20;2.20;;;24.40;84.10;;;;;;4936167;28;20035;-87
2021/07/28 15:58:56;;;;;;;6.28;2.58;;;24.40;82.40;;;;;;4936224;28;20038;-87
2021/07/28 16:01:22;;;;;;;3.25;2.13;;;24.40;81.80;;;;;;4939806;28;20027;-87
2021/07/28 16:03:48;;;;;;;4.72;2.17;;;24.40;81.90;;;;;;4925782;29;20035;-87
2021/07/28 16:06:16;;;;;;;4.90;2.17;;;24.40;82.10;;;;;;4919142;29;20067;-87
2021/07/28 16:08:47;;;;;;;4.70;2.30;;;24.40;82.00;;;;;;4936260;29;20042;-90
2021/07/28 16:11:18;;;;;;;3.75;2.17;;;24.40;82.60;;;;;;4953003;29;20473;-90
2021/07/28 16:14:10;;;;;;;;;;;24.40;82.70;;;;;;4953489;28;20035;-88
2021/07/28 16:16:42;;;;;;;2.75;2.28;;;24.50;83.40;;;;;;4915525;29;19911;-88
2021/07/28 16:19:14;;;;;;;2.42;2.20;;;24.50;84.80;;;;;;4955575;28;20113;-90
2021/07/28 16:21:41;;;;;;;2.33;1.92;;;24.50;85.00;;;;;;4971566;28;20030;-87
2021/07/28 16:24:07;;;;;;;4.13;2.00;;;24.60;85.00;;;;;;4937185;28;20039;-87
2021/07/28 16:26:39;;;;;;;3.08;1.98;;;24.60;85.30;;;;;;4951687;28;20030;-87
2021/07/28 16:29:08;;;;;;;2.75;2.03;;;24.60;85.00;;;;;;4968551;28;20027;-87
2021/07/28 16:34:26;;;;;;;6.10;2.25;;;24.60;85.40;;;;;;4981018;28;20150;-88
2021/07/28 16:37:01;;;;;;;4.00;2.10;;;24.70;84.90;;;;;;4935977;28;20540;-87
2021/07/28 16:39:36;;;;;;;4.43;2.33;;;24.70;85.20;;;;;;4935969;28;20030;-87
2021/07/28 16:42:26;;;;;;;3.15;2.10;;;24.70;84.80;;;;;;4936992;28;20396;-88
2021/07/28 16:44:54;;;;;;;7.57;2.13;;;24.70;86.60;;;;;;4941167;28;20389;-87
2021/07/28 16:47:26;;;;;;;4.20;2.00;;;24.70;86.00;;;;;;4935820;28;20038;-88
2021/07/28 16:50:00;;;;;;;5.55;2.30;;;24.70;85.80;;;;;;4936593;28;20026;-87
2021/07/28 16:52:27;;;;;;;3.42;2.00;;;24.60;84.50;;;;;;4936561;28;20451;-87
2021/07/28 16:54:53;;;;;;;3.13;2.00;;;24.60;84.30;;;;;;4968229;28;20033;-86
2021/07/28 16:57:22;;;;;;;3.42;1.90;;;24.60;84.50;;;;;;4935725;28;20821;-87
2021/07/28 16:59:48;;;;;;;5.03;2.25;;;24.60;85.90;;;;;;4940491;29;20096;-87
2021/07/28 17:02:13;;;;;;;2.42;1.77;;;24.60;86.00;;;;;;4932634;29;20035;-87
2021/07/28 17:04:41;;;;;;;3.40;2.15;;;24.60;85.90;;;;;;4933153;28;20035;-90
2021/07/28 17:07:10;;;;;;;9.40;2.17;;;24.60;85.10;;;;;;4934522;28;20063;-89
2021/07/28 17:09:36;;;;;;;6.47;2.20;;;24.60;85.00;;;;;;4937305;28;20113;-89
2021/07/28 17:12:05;;;;;;;5.82;2.20;;;24.60;85.60;;;;;;4934799;28;20719;-89
2021/07/28 17:14:40;;;;;;;4.72;1.80;;;24.60;85.60;;;;;;4952504;28;20117;-89
2021/07/28 17:17:09;;;;;;;2.70;1.83;;;24.60;85.30;;;;;;4957936;28;20469;-89
2021/07/28 17:19:35;;;;;;;2.42;1.92;;;24.60;84.80;;;;;;4966550;28;20067;-88
2021/07/28 17:22:04;;;;;;;2.65;2.20;;;24.50;84.60;;;;;;4950503;29;20488;-87
2021/07/28 17:24:35;;;;;;;2.63;2.13;;;24.50;84.60;;;;;;4967989;28;20041;-89
2021/07/28 17:27:08;;;;;;;3.00;2.15;;;24.50;83.80;;;;;;4965215;28;20663;-88
2021/07/28 17:29:42;;;;;;;2.17;1.70;;;24.50;84.40;;;;;;4936328;28;20077;-89
2021/07/28 17:32:08;;;;;;;2.63;1.90;;;24.50;84.20;;;;;;4952732;28;20472;-89
2021/07/28 17:34:46;;;;;;;2.22;1.83;;;24.50;84.30;;;;;;4935575;28;20042;-89
2021/07/28 17:37:51;;;;;;;2.53;1.88;;;24.50;84.40;;;;;;4957245;28;20665;-90
2021/07/28 17:40:39;;;;;;;2.80;2.00;;;24.50;83.90;;;;;;4941081;29;20156;-91
2021/07/28 17:43:05;;;;;;;1.73;1.63;;;24.50;83.80;;;;;;4952008;29;20559;-89
2021/07/28 17:45:30;;;;;;;2.33;1.92;;;24.50;84.20;;;;;;4934549;28;20035;-88
2021/07/28 17:48:07;;;;;;;3.78;1.70;;;24.50;84.00;;;;;;4984743;28;20062;-88
2021/07/28 17:50:36;;;;;;;3.08;1.90;;;24.50;83.90;;;;;;4981242;28;20827;-88
2021/07/28 17:53:04;;;;;;;2.90;1.90;;;24.50;83.00;;;;;;4951279;28;20031;-86
2021/07/28 17:55:34;;;;;;;3.45;1.90;;;24.50;83.80;;;;;;4942567;28;20069;-88
2021/07/28 17:58:00;;;;;;;2.97;1.73;;;24.50;82.70;;;;;;4928974;28;20043;-86
2021/07/28 18:00:34;;;;;;;4.30;1.60;;;24.50;83.20;;;;;;4970231;28;20037;-87
2021/07/28 18:03:11;;;;;;;6.80;2.00;;;24.50;82.80;;;;;;4920985;29;20043;-86
2021/07/28 18:05:59;;;;;;;5.00;1.60;;;24.50;82.70;;;;;;4953102;28;20496;-87
2021/07/28 18:08:28;;;;;;;4.50;1.83;;;24.50;82.90;;;;;;4950267;28;20043;-87
2021/07/28 18:10:57;;;;;;;2.28;1.60;;;24.40;82.30;;;;;;4943335;29;20031;-87
2021/07/28 18:13:23;;;;;;;4.90;1.70;;;24.50;82.50;;;;;;4959987;28;20035;-87
2021/07/28 18:15:48;;;;;;;4.50;1.90;;;24.40;82.10;;;;;;4971208;28;20053;-88
2021/07/28 18:18:14;;;;;;;2.05;1.77;;;24.40;82.00;;;;;;4985060;28;20037;-87
2021/07/28 18:20:40;;;;;;;4.15;1.90;;;24.40;82.00;;;;;;4978263;28;20037;-85
2021/07/28 18:23:05;;;;;;;3.33;2.10;;;24.40;81.70;;;;;;4936134;28;20023;-86
2021/07/28 18:25:31;;;;;;;2.45;1.70;;;24.40;81.20;;;;;;4957364;28;20035;-87
2021/07/28 18:27:57;;;;;;;2.30;1.75;;;24.40;81.50;;;;;;4979724;28;20712;-87
2021/07/28 18:30:22;;;;;;;3.30;1.92;;;24.40;81.00;;;;;;4939295;28;20077;-86
2021/07/28 18:32:50;;;;;;;2.85;1.98;;;24.40;80.40;;;;;;4939685;28;20410;-88
2021/07/28 18:35:16;;;;;;;4.43;1.95;;;24.40;78.60;;;;;;4941062;28;20544;-86
2021/07/28 18:37:42;;;;;;;3.75;2.03;;;24.40;77.30;;;;;;4940905;28;20058;-90
2021/07/28 18:40:13;;;;;;;3.47;1.90;;;24.40;76.90;;;;;;4942479;28;20464;-89
2021/07/28 18:42:39;;;;;;;4.88;1.98;;;24.40;77.40;;;;;;4972544;28;20039;-88
2021/07/28 18:45:05;;;;;;;4.80;2.22;;;24.40;76.40;;;;;;4968238;28;20034;-87
2021/07/28 18:47:37;;;;;;;2.90;1.77;;;24.30;76.60;;;;;;4958334;28;20398;-87
2021/07/28 18:50:31;;;;;;;8.00;2.35;;;24.30;76.00;;;;;;4953434;28;20043;-87
2021/07/28 18:52:56;;;;;;;4.15;2.05;;;24.40;75.40;;;;;;4948071;28;20053;-87
2021/07/28 18:55:37;;;;;;;5.90;2.00;;;24.30;75.60;;;;;;4964852;28;20477;-86
2021/07/28 18:58:15;;;;;;;3.80;1.88;;;24.40;73.70;;;;;;4967261;28;20034;-86
2021/07/28 19:01:02;;;;;;;5.60;1.80;;;24.30;73.70;;;;;;4964181;28;20027;-86
2021/07/28 19:03:31;;;;;;;5.47;2.10;;;24.30;73.20;;;;;;4945439;28;20556;-86
2021/07/28 19:06:00;;;;;;;1.90;1.70;;;24.30;73.00;;;;;;4965905;28;20042;-86
2021/07/28 19:12:07;;;;;;;3.80;1.80;;;24.30;73.10;;;;;;4927079;28;20078;-87
2021/07/28 19:18:19;;;;;;;3.88;1.92;;;24.30;71.80;;;;;;4925065;29;20082;-87
2021/07/28 19:21:19;;;;;;;4.78;2.03;;;24.20;71.80;;;;;;4906502;29;20043;-87
2021/07/28 19:24:31;;;;;;;1.90;1.40;;;24.20;71.60;;;;;;4923669;29;20051;-87
2021/07/28 19:41:16;;;;;;;3.13;1.80;;;24.20;71.30;;;;;;4934497;29;20404;-86
2021/07/28 19:44:44;;;;;;;2.90;1.98;;;24.20;72.10;;;;;;4877840;29;20121;-88
2021/07/28 20:20:12;;;;;;;;;;;24.20;68.80;;;;;;4927580;29;20038;-86
2021/07/28 20:22:48;;;;;;;3.85;2.00;;;24.20;68.80;;;;;;4913009;29;19990;-92
2021/07/28 20:28:08;;;;;;;3.63;1.70;;;24.10;68.50;;;;;;4964127;28;20050;-90
2021/07/28 20:30:34;;;;;;;4.07;2.00;;;24.20;68.30;;;;;;4923740;28;20050;-89
2021/07/28 20:33:05;;;;;;;4.28;2.40;;;24.10;69.60;;;;;;4953510;28;20030;-90
2021/07/28 20:35:34;;;;;;;6.95;2.17;;;24.20;70.40;;;;;;4943513;28;20034;-91
2021/07/28 20:38:00;;;;;;;3.38;1.83;;;24.10;70.20;;;;;;4944995;28;20078;-90
2021/07/28 20:40:30;;;;;;;2.75;1.80;;;24.20;69.20;;;;;;4943082;28;20062;-90
2021/07/28 20:42:56;;;;;;;2.13;1.92;;;24.20;69.90;;;;;;4955753;28;20039;-90
2021/07/28 20:45:31;;;;;;;2.47;2.00;;;24.20;70.90;;;;;;4955891;28;20085;-91
2021/07/28 20:47:57;;;;;;;3.97;1.95;;;24.10;70.60;;;;;;4954948;28;20026;-90
2021/07/28 20:50:26;;;;;;;2.20;2.00;;;24.20;70.40;;;;;;4955446;28;20531;-89
2021/07/28 20:52:52;;;;;;;2.80;2.22;;;24.20;69.40;;;;;;4955087;28;20117;-88
2021/07/28 20:55:18;;;;;;;3.60;1.90;;;24.20;69.20;;;;;;4955160;28;20113;-87
